Terminal Aerodrome Forecast
Issued by NWS

Home | Current Version | Previous Version | Text Only | Print | Product List | Glossary On
Versions: 1 2 3 4 5 6 7 8 9 10 11 12 13 14 15 16 17 18 19 20 21 22 23 24 25 26 27 28 29 30 31
511
FTUS44 KOHX 270537
TAFCKV
TAF
KCKV 270537Z 2706/2806 VRB03KT P6SM BKN240
      TEMPO 2709/2712 4SM BR
     FM271400 17007KT P6SM OVC130
     FM271600 19009G18KT P6SM VCSH SCT035 BKN080 PROB30 2721/2801
      4SM -TSRA OVC035CB
     FM280100 20007KT 4SM -SHRA OVC035=

USA.gov is the U.S. government's official web portal to all federal, state and local government web resources and services.